sensor_id;sensor_type;location;lat;lon;timestamp;temperature;humidity
71304;DHT22;59091;47.446;19.148;2022-11-15T00:01:46;6.93;82.39
71304;DHT22;59091;47.446;19.148;2022-11-15T00:04:11;7.05;82.06
71304;DHT22;59091;47.446;19.148;2022-11-15T00:06:37;7.10;81.93
71304;DHT22;59091;47.446;19.148;2022-11-15T00:09:02;7.06;81.95
71304;DHT22;59091;47.446;19.148;2022-11-15T00:11:28;6.98;82.18
71304;DHT22;59091;47.446;19.148;2022-11-15T00:13:57;6.87;82.54
71304;DHT22;59091;47.446;19.148;2022-11-15T00:16:23;6.91;82.51
71304;DHT22;59091;47.446;19.148;2022-11-15T00:18:49;7.00;82.29
71304;DHT22;59091;47.446;19.148;2022-11-15T00:21:15;7.03;82.19
71304;DHT22;59091;47.446;19.148;2022-11-15T00:23:41;7.08;82.24
71304;DHT22;59091;47.446;19.148;2022-11-15T00:26:11;7.09;81.94
71304;DHT22;59091;47.446;19.148;2022-11-15T00:28:37;7.10;82.06
71304;DHT22;59091;47.446;19.148;2022-11-15T00:31:04;7.19;81.94
71304;DHT22;59091;47.446;19.148;2022-11-15T00:33:30;7.26;81.82
71304;DHT22;59091;47.446;19.148;2022-11-15T00:36:02;7.24;81.69
71304;DHT22;59091;47.446;19.148;2022-11-15T00:38:37;7.22;81.70
71304;DHT22;59091;47.446;19.148;2022-11-15T00:41:04;7.24;81.82
71304;DHT22;59091;47.446;19.148;2022-11-15T00:43:30;7.33;81.70
71304;DHT22;59091;47.446;19.148;2022-11-15T00:45:55;7.37;81.56
71304;DHT22;59091;47.446;19.148;2022-11-15T00:48:21;7.42;81.50
71304;DHT22;59091;47.446;19.148;2022-11-15T00:50:48;7.49;81.41
71304;DHT22;59091;47.446;19.148;2022-11-15T00:53:13;7.40;81.61
71304;DHT22;59091;47.446;19.148;2022-11-15T00:55:39;7.43;81.57
71304;DHT22;59091;47.446;19.148;2022-11-15T00:58:04;7.26;82.13
71304;DHT22;59091;47.446;19.148;2022-11-15T01:00:29;7.33;82.01
71304;DHT22;59091;47.446;19.148;2022-11-15T01:02:55;7.31;82.10
71304;DHT22;59091;47.446;19.148;2022-11-15T01:05:20;7.33;82.06
71304;DHT22;59091;47.446;19.148;2022-11-15T01:07:45;7.34;81.95
71304;DHT22;59091;47.446;19.148;2022-11-15T01:10:11;7.43;81.78
71304;DHT22;59091;47.446;19.148;2022-11-15T01:12:36;7.31;82.19
71304;DHT22;59091;47.446;19.148;2022-11-15T01:15:02;7.42;81.86
71304;DHT22;59091;47.446;19.148;2022-11-15T01:17:28;7.46;81.76
71304;DHT22;59091;47.446;19.148;2022-11-15T01:19:53;7.43;81.72
71304;DHT22;59091;47.446;19.148;2022-11-15T01:22:19;7.49;81.91
71304;DHT22;59091;47.446;19.148;2022-11-15T01:24:44;7.54;81.68
71304;DHT22;59091;47.446;19.148;2022-11-15T01:27:10;7.56;81.60
71304;DHT22;59091;47.446;19.148;2022-11-15T01:29:35;7.57;81.50
71304;DHT22;59091;47.446;19.148;2022-11-15T01:32:00;7.36;82.48
71304;DHT22;59091;47.446;19.148;2022-11-15T01:34:26;7.53;81.92
71304;DHT22;59091;47.446;19.148;2022-11-15T01:36:51;7.61;81.73
71304;DHT22;59091;47.446;19.148;2022-11-15T01:39:17;7.69;81.54
71304;DHT22;59091;47.446;19.148;2022-11-15T01:41:42;7.59;81.71
71304;DHT22;59091;47.446;19.148;2022-11-15T01:47:06;7.64;81.72
71304;DHT22;59091;47.446;19.148;2022-11-15T01:49:34;7.66;81.62
71304;DHT22;59091;47.446;19.148;2022-11-15T01:52:02;7.69;81.62
71304;DHT22;59091;47.446;19.148;2022-11-15T01:54:28;7.77;81.38
71304;DHT22;59091;47.446;19.148;2022-11-15T01:57:04;7.74;81.34
71304;DHT22;59091;47.446;19.148;2022-11-15T01:59:31;7.64;81.81
71304;DHT22;59091;47.446;19.148;2022-11-15T02:01:56;7.70;81.66
71304;DHT22;59091;47.446;19.148;2022-11-15T02:04:31;7.69;81.53
71304;DHT22;59091;47.446;19.148;2022-11-15T02:06:57;7.56;82.19
71304;DHT22;59091;47.446;19.148;2022-11-15T02:09:22;7.59;82.08
71304;DHT22;59091;47.446;19.148;2022-11-15T02:11:48;7.57;82.22
71304;DHT22;59091;47.446;19.148;2022-11-15T02:14:16;7.67;81.80
71304;DHT22;59091;47.446;19.148;2022-11-15T02:28:16;7.40;82.13
71304;DHT22;59091;47.446;19.148;2022-11-15T02:30:47;7.43;82.51
71304;DHT22;59091;47.446;19.148;2022-11-15T02:33:41;7.31;82.44
71304;DHT22;59091;47.446;19.148;2022-11-15T02:38:46;7.44;82.18
71304;DHT22;59091;47.446;19.148;2022-11-15T02:41:42;7.46;82.03
71304;DHT22;59091;47.446;19.148;2022-11-15T02:44:12;7.44;82.23
71304;DHT22;59091;47.446;19.148;2022-11-15T02:46:49;7.37;82.12
71304;DHT22;59091;47.446;19.148;2022-11-15T02:49:34;7.22;82.74
71304;DHT22;59091;47.446;19.148;2022-11-15T02:52:00;7.47;82.07
71304;DHT22;59091;47.446;19.148;2022-11-15T02:54:30;7.43;81.97
71304;DHT22;59091;47.446;19.148;2022-11-15T02:57:07;7.49;81.61
71304;DHT22;59091;47.446;19.148;2022-11-15T03:00:08;7.50;81.37
71304;DHT22;59091;47.446;19.148;2022-11-15T03:05:40;7.60;80.91
71304;DHT22;59091;47.446;19.148;2022-11-15T03:13:27;7.71;80.81
71304;DHT22;59091;47.446;19.148;2022-11-15T03:16:20;7.73;80.39
71304;DHT22;59091;47.446;19.148;2022-11-15T03:19:03;7.75;80.41
71304;DHT22;59091;47.446;19.148;2022-11-15T03:21:31;7.84;80.55
71304;DHT22;59091;47.446;19.148;2022-11-15T03:23:59;7.90;80.39
71304;DHT22;59091;47.446;19.148;2022-11-15T03:26:27;7.88;80.32
71304;DHT22;59091;47.446;19.148;2022-11-15T03:28:57;7.90;80.24
71304;DHT22;59091;47.446;19.148;2022-11-15T03:31:29;7.84;80.34
71304;DHT22;59091;47.446;19.148;2022-11-15T03:34:19;7.78;80.25
71304;DHT22;59091;47.446;19.148;2022-11-15T03:36:47;7.73;80.71
71304;DHT22;59091;47.446;19.148;2022-11-15T03:39:13;7.75;80.70
71304;DHT22;59091;47.446;19.148;2022-11-15T03:49:27;7.85;79.84
71304;DHT22;59091;47.446;19.148;2022-11-15T03:51:57;7.87;80.00
71304;DHT22;59091;47.446;19.148;2022-11-15T03:54:22;7.78;80.42
71304;DHT22;59091;47.446;19.148;2022-11-15T03:56:48;7.87;80.19
71304;DHT22;59091;47.446;19.148;2022-11-15T03:59:13;7.84;80.34
71304;DHT22;59091;47.446;19.148;2022-11-15T04:01:38;7.74;80.42
71304;DHT22;59091;47.446;19.148;2022-11-15T04:04:04;7.60;81.39
71304;DHT22;59091;47.446;19.148;2022-11-15T04:06:29;7.40;82.07
71304;DHT22;59091;47.446;19.148;2022-11-15T04:08:55;7.49;81.77
71304;DHT22;59091;47.446;19.148;2022-11-15T04:11:20;7.53;81.62
71304;DHT22;59091;47.446;19.148;2022-11-15T04:13:45;7.63;81.44
71304;DHT22;59091;47.446;19.148;2022-11-15T04:16:11;7.46;81.89
71304;DHT22;59091;47.446;19.148;2022-11-15T04:18:36;7.54;81.86
71304;DHT22;59091;47.446;19.148;2022-11-15T04:21:02;7.64;81.41
71304;DHT22;59091;47.446;19.148;2022-11-15T04:23:46;7.70;81.11
71304;DHT22;59091;47.446;19.148;2022-11-15T04:26:30;7.54;81.41
71304;DHT22;59091;47.446;19.148;2022-11-15T04:28:55;7.78;81.10
71304;DHT22;59091;47.446;19.148;2022-11-15T04:31:39;7.70;80.91
71304;DHT22;59091;47.446;19.148;2022-11-15T04:34:05;7.77;80.89
71304;DHT22;59091;47.446;19.148;2022-11-15T04:36:30;7.80;80.81
71304;DHT22;59091;47.446;19.148;2022-11-15T04:39:14;7.73;80.97
71304;DHT22;59091;47.446;19.148;2022-11-15T04:41:39;7.80;80.65
71304;DHT22;59091;47.446;19.148;2022-11-15T04:44:05;7.84;80.53
71304;DHT22;59091;47.446;19.148;2022-11-15T04:46:30;7.80;80.67
71304;DHT22;59091;47.446;19.148;2022-11-15T04:48:56;7.75;80.56
71304;DHT22;59091;47.446;19.148;2022-11-15T04:51:21;7.77;80.56
71304;DHT22;59091;47.446;19.148;2022-11-15T04:53:46;7.80;80.52
71304;DHT22;59091;47.446;19.148;2022-11-15T04:56:12;7.85;80.72
71304;DHT22;59091;47.446;19.148;2022-11-15T04:58:37;7.92;80.52
71304;DHT22;59091;47.446;19.148;2022-11-15T05:01:10;7.85;80.41
71304;DHT22;59091;47.446;19.148;2022-11-15T05:03:37;7.91;80.49
71304;DHT22;59091;47.446;19.148;2022-11-15T05:06:21;7.98;80.49
71304;DHT22;59091;47.446;19.148;2022-11-15T05:08:46;7.92;80.56
71304;DHT22;59091;47.446;19.148;2022-11-15T05:11:12;7.90;81.13
71304;DHT22;59091;47.446;19.148;2022-11-15T05:13:37;7.85;81.33
71304;DHT22;59091;47.446;19.148;2022-11-15T05:16:03;7.80;81.73
71304;DHT22;59091;47.446;19.148;2022-11-15T05:18:28;7.94;81.25
71304;DHT22;59091;47.446;19.148;2022-11-15T05:20:54;8.02;83.45
71304;DHT22;59091;47.446;19.148;2022-11-15T05:23:19;8.35;88.22
71304;DHT22;59091;47.446;19.148;2022-11-15T05:25:44;8.39;84.13
71304;DHT22;59091;47.446;19.148;2022-11-15T05:28:10;8.39;81.83
71304;DHT22;59091;47.446;19.148;2022-11-15T05:30:35;8.32;80.66
71304;DHT22;59091;47.446;19.148;2022-11-15T05:33:01;8.36;80.22
71304;DHT22;59091;47.446;19.148;2022-11-15T05:35:32;8.33;80.00
71304;DHT22;59091;47.446;19.148;2022-11-15T05:37:59;8.38;80.21
71304;DHT22;59091;47.446;19.148;2022-11-15T05:40:25;8.43;80.41
71304;DHT22;59091;47.446;19.148;2022-11-15T05:42:51;8.42;81.09
71304;DHT22;59091;47.446;19.148;2022-11-15T05:45:16;8.43;80.33
71304;DHT22;59091;47.446;19.148;2022-11-15T05:47:43;8.41;80.87
71304;DHT22;59091;47.446;19.148;2022-11-15T05:50:12;8.38;80.34
71304;DHT22;59091;47.446;19.148;2022-11-15T05:52:39;8.39;80.39
71304;DHT22;59091;47.446;19.148;2022-11-15T05:55:06;8.29;80.46
71304;DHT22;59091;47.446;19.148;2022-11-15T05:57:33;8.79;91.84
71304;DHT22;59091;47.446;19.148;2022-11-15T05:59:58;8.72;84.23
71304;DHT22;59091;47.446;19.148;2022-11-15T06:02:24;8.72;82.60
71304;DHT22;59091;47.446;19.148;2022-11-15T06:04:49;8.70;84.86
71304;DHT22;59091;47.446;19.148;2022-11-15T06:07:14;8.60;80.88
71304;DHT22;59091;47.446;19.148;2022-11-15T06:09:40;8.56;80.13
71304;DHT22;59091;47.446;19.148;2022-11-15T06:12:05;8.60;79.76
71304;DHT22;59091;47.446;19.148;2022-11-15T06:14:31;8.48;80.82
71304;DHT22;59091;47.446;19.148;2022-11-15T06:16:56;8.45;80.30
71304;DHT22;59091;47.446;19.148;2022-11-15T06:19:21;8.60;82.78
71304;DHT22;59091;47.446;19.148;2022-11-15T06:21:47;8.50;80.86
71304;DHT22;59091;47.446;19.148;2022-11-15T06:24:12;8.54;80.22
71304;DHT22;59091;47.446;19.148;2022-11-15T06:26:37;8.70;83.57
71304;DHT22;59091;47.446;19.148;2022-11-15T06:29:04;8.50;80.59
71304;DHT22;59091;47.446;19.148;2022-11-15T06:31:29;8.48;80.25
71304;DHT22;59091;47.446;19.148;2022-11-15T06:33:55;8.52;80.42
71304;DHT22;59091;47.446;19.148;2022-11-15T06:36:20;8.52;80.49
71304;DHT22;59091;47.446;19.148;2022-11-15T06:38:45;8.48;80.65
71304;DHT22;59091;47.446;19.148;2022-11-15T06:41:13;8.33;80.96
71304;DHT22;59091;47.446;19.148;2022-11-15T06:43:39;8.63;84.23
71304;DHT22;59091;47.446;19.148;2022-11-15T06:46:06;8.64;82.21
71304;DHT22;59091;47.446;19.148;2022-11-15T06:48:32;8.54;81.22
71304;DHT22;59091;47.446;19.148;2022-11-15T06:50:59;8.69;82.37
71304;DHT22;59091;47.446;19.148;2022-11-15T06:53:25;8.77;81.80
71304;DHT22;59091;47.446;19.148;2022-11-15T06:55:51;8.87;81.44
71304;DHT22;59091;47.446;19.148;2022-11-15T06:58:17;8.93;81.43
71304;DHT22;59091;47.446;19.148;2022-11-15T07:00:42;8.70;80.40
71304;DHT22;59091;47.446;19.148;2022-11-15T07:03:08;8.73;80.31
71304;DHT22;59091;47.446;19.148;2022-11-15T07:05:34;8.80;80.13
71304;DHT22;59091;47.446;19.148;2022-11-15T07:07:59;10.16;93.31
71304;DHT22;59091;47.446;19.148;2022-11-15T07:10:25;10.20;87.37
71304;DHT22;59091;47.446;19.148;2022-11-15T07:12:52;9.90;83.03
71304;DHT22;59091;47.446;19.148;2022-11-15T07:15:19;9.68;79.23
71304;DHT22;59091;47.446;19.148;2022-11-15T07:17:44;9.71;78.68
71304;DHT22;59091;47.446;19.148;2022-11-15T07:20:11;9.72;78.04
71304;DHT22;59091;47.446;19.148;2022-11-15T07:22:36;9.63;77.85
71304;DHT22;59091;47.446;19.148;2022-11-15T07:25:02;9.49;78.17
71304;DHT22;59091;47.446;19.148;2022-11-15T07:27:28;9.27;78.44
71304;DHT22;59091;47.446;19.148;2022-11-15T07:29:53;9.68;82.60
71304;DHT22;59091;47.446;19.148;2022-11-15T07:32:19;9.65;79.92
71304;DHT22;59091;47.446;19.148;2022-11-15T07:34:44;10.17;84.83
71304;DHT22;59091;47.446;19.148;2022-11-15T07:37:11;10.12;78.61
71304;DHT22;59091;47.446;19.148;2022-11-15T07:39:36;9.93;76.87
71304;DHT22;59091;47.446;19.148;2022-11-15T07:42:02;9.86;78.57
71304;DHT22;59091;47.446;19.148;2022-11-15T07:44:46;9.61;77.59
71304;DHT22;59091;47.446;19.148;2022-11-15T07:47:11;9.76;77.41
71304;DHT22;59091;47.446;19.148;2022-11-15T07:49:37;9.58;77.53
71304;DHT22;59091;47.446;19.148;2022-11-15T07:52:02;9.72;77.89
71304;DHT22;59091;47.446;19.148;2022-11-15T07:54:28;9.74;78.26
71304;DHT22;59091;47.446;19.148;2022-11-15T07:56:53;9.75;77.96
71304;DHT22;59091;47.446;19.148;2022-11-15T07:59:18;9.76;80.43
71304;DHT22;59091;47.446;19.148;2022-11-15T08:01:44;9.81;77.53
71304;DHT22;59091;47.446;19.148;2022-11-15T08:04:10;9.65;77.33
71304;DHT22;59091;47.446;19.148;2022-11-15T08:06:36;9.72;77.14
71304;DHT22;59091;47.446;19.148;2022-11-15T08:09:02;9.48;77.99
71304;DHT22;59091;47.446;19.148;2022-11-15T08:11:27;9.44;78.30
71304;DHT22;59091;47.446;19.148;2022-11-15T08:13:53;9.52;78.02
71304;DHT22;59091;47.446;19.148;2022-11-15T08:16:18;9.59;78.01
71304;DHT22;59091;47.446;19.148;2022-11-15T08:18:44;9.52;81.60
71304;DHT22;59091;47.446;19.148;2022-11-15T08:21:09;9.36;79.72
71304;DHT22;59091;47.446;19.148;2022-11-15T08:23:35;9.58;79.11
71304;DHT22;59091;47.446;19.148;2022-11-15T08:26:03;9.61;79.44
71304;DHT22;59091;47.446;19.148;2022-11-15T08:28:29;9.48;79.58
71304;DHT22;59091;47.446;19.148;2022-11-15T08:30:54;9.71;79.93
71304;DHT22;59091;47.446;19.148;2022-11-15T08:33:20;9.62;79.14
71304;DHT22;59091;47.446;19.148;2022-11-15T08:35:45;9.76;78.67
71304;DHT22;59091;47.446;19.148;2022-11-15T08:38:11;9.72;78.98
71304;DHT22;59091;47.446;19.148;2022-11-15T08:40:37;9.72;78.82
71304;DHT22;59091;47.446;19.148;2022-11-15T08:43:03;9.78;78.61
71304;DHT22;59091;47.446;19.148;2022-11-15T08:45:29;9.75;78.84
71304;DHT22;59091;47.446;19.148;2022-11-15T08:47:55;9.81;78.71
71304;DHT22;59091;47.446;19.148;2022-11-15T08:50:20;9.86;78.29
71304;DHT22;59091;47.446;19.148;2022-11-15T08:52:46;9.93;78.40
71304;DHT22;59091;47.446;19.148;2022-11-15T08:55:13;9.99;78.29
71304;DHT22;59091;47.446;19.148;2022-11-15T08:57:38;10.05;78.45
71304;DHT22;59091;47.446;19.148;2022-11-15T09:00:04;9.92;78.82
71304;DHT22;59091;47.446;19.148;2022-11-15T09:02:30;9.96;78.46
71304;DHT22;59091;47.446;19.148;2022-11-15T09:04:55;10.16;78.54
71304;DHT22;59091;47.446;19.148;2022-11-15T09:07:21;10.24;78.63
71304;DHT22;59091;47.446;19.148;2022-11-15T09:09:46;10.32;78.46
71304;DHT22;59091;47.446;19.148;2022-11-15T09:12:11;10.29;78.19
71304;DHT22;59091;47.446;19.148;2022-11-15T09:14:37;10.46;77.84
71304;DHT22;59091;47.446;19.148;2022-11-15T09:17:02;10.55;77.56
71304;DHT22;59091;47.446;19.148;2022-11-15T09:19:28;10.63;77.41
71304;DHT22;59091;47.446;19.148;2022-11-15T09:21:54;10.68;77.11
71304;DHT22;59091;47.446;19.148;2022-11-15T09:24:19;10.47;78.24
71304;DHT22;59091;47.446;19.148;2022-11-15T09:26:46;10.61;77.66
71304;DHT22;59091;47.446;19.148;2022-11-15T09:29:11;10.75;77.32
71304;DHT22;59091;47.446;19.148;2022-11-15T09:31:36;10.57;77.93
71304;DHT22;59091;47.446;19.148;2022-11-15T09:34:02;10.41;78.12
71304;DHT22;59091;47.446;19.148;2022-11-15T09:36:27;10.48;78.10
71304;DHT22;59091;47.446;19.148;2022-11-15T09:38:53;10.50;78.92
71304;DHT22;59091;47.446;19.148;2022-11-15T09:41:27;10.53;78.70
71304;DHT22;59091;47.446;19.148;2022-11-15T09:47:20;10.67;77.63
71304;DHT22;59091;47.446;19.148;2022-11-15T09:49:42;10.57;77.20
71304;DHT22;59091;47.446;19.148;2022-11-15T09:52:08;10.41;77.53
71304;DHT22;59091;47.446;19.148;2022-11-15T09:54:37;10.47;77.84
71304;DHT22;59091;47.446;19.148;2022-11-15T09:57:11;10.33;77.06
71304;DHT22;59091;47.446;19.148;2022-11-15T10:05:32;10.68;76.60
71304;DHT22;59091;47.446;19.148;2022-11-15T10:10:39;10.65;75.81
71304;DHT22;59091;47.446;19.148;2022-11-15T10:13:13;10.48;76.23
71304;DHT22;59091;47.446;19.148;2022-11-15T10:15:43;10.55;76.41
71304;DHT22;59091;47.446;19.148;2022-11-15T10:20:58;10.29;77.07
71304;DHT22;59091;47.446;19.148;2022-11-15T10:23:24;10.43;77.59
71304;DHT22;59091;47.446;19.148;2022-11-15T10:25:57;10.43;77.19
71304;DHT22;59091;47.446;19.148;2022-11-15T10:28:30;10.41;77.27
71304;DHT22;59091;47.446;19.148;2022-11-15T10:31:00;10.48;76.93
71304;DHT22;59091;47.446;19.148;2022-11-15T10:33:31;10.41;77.09
71304;DHT22;59091;47.446;19.148;2022-11-15T10:36:17;10.24;76.94
71304;DHT22;59091;47.446;19.148;2022-11-15T10:46:35;10.34;78.00
71304;DHT22;59091;47.446;19.148;2022-11-15T10:49:15;10.30;77.92
71304;DHT22;59091;47.446;19.148;2022-11-15T10:51:46;10.46;77.75
71304;DHT22;59091;47.446;19.148;2022-11-15T10:54:12;10.44;77.90
71304;DHT22;59091;47.446;19.148;2022-11-15T10:56:39;10.48;77.58
71304;DHT22;59091;47.446;19.148;2022-11-15T10:59:16;10.40;77.57
71304;DHT22;59091;47.446;19.148;2022-11-15T11:01:46;10.41;77.64
71304;DHT22;59091;47.446;19.148;2022-11-15T11:04:12;10.34;78.07
71304;DHT22;59091;47.446;19.148;2022-11-15T11:06:53;10.29;77.96
71304;DHT22;59091;47.446;19.148;2022-11-15T11:09:34;10.60;83.37
71304;DHT22;59091;47.446;19.148;2022-11-15T11:12:01;10.78;79.32
71304;DHT22;59091;47.446;19.148;2022-11-15T11:14:28;10.88;77.72
71304;DHT22;59091;47.446;19.148;2022-11-15T11:17:17;10.85;76.84
71304;DHT22;59091;47.446;19.148;2022-11-15T11:22:22;10.81;76.95
71304;DHT22;59091;47.446;19.148;2022-11-15T11:25:11;10.82;76.15
71304;DHT22;59091;47.446;19.148;2022-11-15T11:33:20;10.96;76.80
71304;DHT22;59091;47.446;19.148;2022-11-15T11:36:09;10.75;77.11
71304;DHT22;59091;47.446;19.148;2022-11-15T11:38:42;10.88;77.20
71304;DHT22;59091;47.446;19.148;2022-11-15T11:41:37;10.96;79.20
71304;DHT22;59091;47.446;19.148;2022-11-15T11:47:12;10.79;77.11
71304;DHT22;59091;47.446;19.148;2022-11-15T11:49:59;10.60;77.61
71304;DHT22;59091;47.446;19.148;2022-11-15T11:55:14;10.53;77.69
71304;DHT22;59091;47.446;19.148;2022-11-15T12:00:29;10.53;78.19
71304;DHT22;59091;47.446;19.148;2022-11-15T12:05:43;10.33;78.95
71304;DHT22;59091;47.446;19.148;2022-11-15T12:08:25;10.30;78.35
71304;DHT22;59091;47.446;19.148;2022-11-15T12:11:00;10.27;79.05
71304;DHT22;59091;47.446;19.148;2022-11-15T12:13:26;10.34;79.04
71304;DHT22;59091;47.446;19.148;2022-11-15T12:16:07;10.27;79.11
71304;DHT22;59091;47.446;19.148;2022-11-15T12:18:35;10.37;78.98
71304;DHT22;59091;47.446;19.148;2022-11-15T12:23:52;10.41;78.61
71304;DHT22;59091;47.446;19.148;2022-11-15T12:26:24;10.47;78.53
71304;DHT22;59091;47.446;19.148;2022-11-15T12:28:55;10.48;78.51
71304;DHT22;59091;47.446;19.148;2022-11-15T12:31:35;10.53;78.25
71304;DHT22;59091;47.446;19.148;2022-11-15T12:34:12;10.44;78.75
71304;DHT22;59091;47.446;19.148;2022-11-15T12:36:40;10.40;78.87
71304;DHT22;59091;47.446;19.148;2022-11-15T12:39:11;10.16;78.84
71304;DHT22;59091;47.446;19.148;2022-11-15T12:41:42;10.37;78.56
71304;DHT22;59091;47.446;19.148;2022-11-15T12:44:57;10.29;78.08
71304;DHT22;59091;47.446;19.148;2022-11-15T13:02:35;10.67;79.54
71304;DHT22;59091;47.446;19.148;2022-11-15T13:17:55;10.71;80.39
71304;DHT22;59091;47.446;19.148;2022-11-15T13:20:26;11.02;81.91
71304;DHT22;59091;47.446;19.148;2022-11-15T13:25:55;10.60;77.81
71304;DHT22;59091;47.446;19.148;2022-11-15T13:28:37;10.60;78.30
71304;DHT22;59091;47.446;19.148;2022-11-15T13:31:25;10.44;78.79
71304;DHT22;59091;47.446;19.148;2022-11-15T13:33:51;10.44;79.34
71304;DHT22;59091;47.446;19.148;2022-11-15T13:36:30;10.96;83.32
71304;DHT22;59091;47.446;19.148;2022-11-15T13:39:11;10.82;78.51
71304;DHT22;59091;47.446;19.148;2022-11-15T13:41:51;10.81;77.80
71304;DHT22;59091;47.446;19.148;2022-11-15T13:44:24;10.84;77.75
71304;DHT22;59091;47.446;19.148;2022-11-15T13:47:04;10.75;77.67
71304;DHT22;59091;47.446;19.148;2022-11-15T13:49:32;10.82;77.52
71304;DHT22;59091;47.446;19.148;2022-11-15T13:51:59;10.89;77.26
71304;DHT22;59091;47.446;19.148;2022-11-15T13:54:33;10.75;77.65
71304;DHT22;59091;47.446;19.148;2022-11-15T13:57:11;10.64;78.20
71304;DHT22;59091;47.446;19.148;2022-11-15T13:59:46;10.51;78.29
71304;DHT22;59091;47.446;19.148;2022-11-15T14:02:18;10.43;78.65
71304;DHT22;59091;47.446;19.148;2022-11-15T14:07:38;10.18;79.48
71304;DHT22;59091;47.446;19.148;2022-11-15T14:10:27;10.12;79.13
71304;DHT22;59091;47.446;19.148;2022-11-15T14:12:53;9.95;79.65
71304;DHT22;59091;47.446;19.148;2022-11-15T14:15:37;9.97;79.30
71304;DHT22;59091;47.446;19.148;2022-11-15T14:18:03;9.82;80.21
71304;DHT22;59091;47.446;19.148;2022-11-15T14:20:37;9.83;80.36
71304;DHT22;59091;47.446;19.148;2022-11-15T14:25:55;9.68;80.53
71304;DHT22;59091;47.446;19.148;2022-11-15T14:30:51;9.87;80.87
71304;DHT22;59091;47.446;19.148;2022-11-15T14:33:30;10.13;85.75
71304;DHT22;59091;47.446;19.148;2022-11-15T14:36:01;10.10;81.62
71304;DHT22;59091;47.446;19.148;2022-11-15T14:38:27;10.06;80.36
71304;DHT22;59091;47.446;19.148;2022-11-15T14:40:52;10.02;79.69
71304;DHT22;59091;47.446;19.148;2022-11-15T14:43:20;9.99;79.61
71304;DHT22;59091;47.446;19.148;2022-11-15T14:45:45;9.96;79.68
71304;DHT22;59091;47.446;19.148;2022-11-15T14:48:11;10.05;79.49
71304;DHT22;59091;47.446;19.148;2022-11-15T14:50:36;10.00;79.90
71304;DHT22;59091;47.446;19.148;2022-11-15T14:53:02;9.87;79.82
71304;DHT22;59091;47.446;19.148;2022-11-15T14:55:31;9.72;80.29
71304;DHT22;59091;47.446;19.148;2022-11-15T14:58:03;9.81;79.86
71304;DHT22;59091;47.446;19.148;2022-11-15T15:00:32;9.83;80.20
71304;DHT22;59091;47.446;19.148;2022-11-15T15:02:58;9.97;79.95
71304;DHT22;59091;47.446;19.148;2022-11-15T15:05:37;9.95;80.29
71304;DHT22;59091;47.446;19.148;2022-11-15T15:08:03;9.87;80.35
71304;DHT22;59091;47.446;19.148;2022-11-15T15:10:32;9.74;80.81
71304;DHT22;59091;47.446;19.148;2022-11-15T15:12:58;9.74;80.73
71304;DHT22;59091;47.446;19.148;2022-11-15T15:15:25;9.81;80.63
71304;DHT22;59091;47.446;19.148;2022-11-15T15:17:51;9.83;80.31
71304;DHT22;59091;47.446;19.148;2022-11-15T15:20:17;9.90;80.20
71304;DHT22;59091;47.446;19.148;2022-11-15T15:22:42;9.71;80.60
71304;DHT22;59091;47.446;19.148;2022-11-15T15:25:20;9.68;80.38
71304;DHT22;59091;47.446;19.148;2022-11-15T15:27:46;9.95;83.77
71304;DHT22;59091;47.446;19.148;2022-11-15T15:30:12;10.03;81.31
71304;DHT22;59091;47.446;19.148;2022-11-15T15:32:37;9.97;80.48
71304;DHT22;59091;47.446;19.148;2022-11-15T15:35:05;9.89;80.68
71304;DHT22;59091;47.446;19.148;2022-11-15T15:37:31;9.96;80.72
71304;DHT22;59091;47.446;19.148;2022-11-15T15:39:58;10.03;80.36
71304;DHT22;59091;47.446;19.148;2022-11-15T15:42:25;10.13;85.60
71304;DHT22;59091;47.446;19.148;2022-11-15T15:44:50;10.09;82.22
71304;DHT22;59091;47.446;19.148;2022-11-15T15:49:43;10.10;80.22
71304;DHT22;59091;47.446;19.148;2022-11-15T15:52:08;10.13;80.11
71304;DHT22;59091;47.446;19.148;2022-11-15T15:54:33;10.12;80.06
71304;DHT22;59091;47.446;19.148;2022-11-15T15:56:59;10.16;80.12
71304;DHT22;59091;47.446;19.148;2022-11-15T15:59:24;10.13;80.14
71304;DHT22;59091;47.446;19.148;2022-11-15T16:01:50;10.10;80.79
71304;DHT22;59091;47.446;19.148;2022-11-15T16:04:15;10.23;83.00
71304;DHT22;59091;47.446;19.148;2022-11-15T16:06:41;10.16;80.97
71304;DHT22;59091;47.446;19.148;2022-11-15T16:09:17;10.14;81.90
71304;DHT22;59091;47.446;19.148;2022-11-15T16:11:44;10.13;80.75
71304;DHT22;59091;47.446;19.148;2022-11-15T16:14:10;10.16;80.31
71304;DHT22;59091;47.446;19.148;2022-11-15T16:16:36;10.13;80.32
71304;DHT22;59091;47.446;19.148;2022-11-15T16:19:02;10.17;80.27
71304;DHT22;59091;47.446;19.148;2022-11-15T16:21:28;10.14;80.43
71304;DHT22;59091;47.446;19.148;2022-11-15T16:23:53;10.06;80.69
71304;DHT22;59091;47.446;19.148;2022-11-15T16:26:25;10.02;80.59
71304;DHT22;59091;47.446;19.148;2022-11-15T16:28:52;10.14;82.43
71304;DHT22;59091;47.446;19.148;2022-11-15T16:31:18;10.07;81.24
71304;DHT22;59091;47.446;19.148;2022-11-15T16:33:45;10.00;81.33
71304;DHT22;59091;47.446;19.148;2022-11-15T16:36:25;10.05;84.21
71304;DHT22;59091;47.446;19.148;2022-11-15T16:38:51;10.13;82.47
71304;DHT22;59091;47.446;19.148;2022-11-15T16:41:17;10.27;85.20
71304;DHT22;59091;47.446;19.148;2022-11-15T16:43:47;10.34;83.02
71304;DHT22;59091;47.446;19.148;2022-11-15T16:46:23;10.27;80.99
71304;DHT22;59091;47.446;19.148;2022-11-15T16:48:49;10.29;80.48
71304;DHT22;59091;47.446;19.148;2022-11-15T16:51:16;10.30;80.23
71304;DHT22;59091;47.446;19.148;2022-11-15T16:53:42;10.38;82.65
71304;DHT22;59091;47.446;19.148;2022-11-15T16:56:28;10.27;80.77
71304;DHT22;59091;47.446;19.148;2022-11-15T16:58:55;10.20;80.62
71304;DHT22;59091;47.446;19.148;2022-11-15T17:01:27;10.12;80.67
71304;DHT22;59091;47.446;19.148;2022-11-15T17:03:53;10.09;80.92
71304;DHT22;59091;47.446;19.148;2022-11-15T17:06:19;10.10;80.81
71304;DHT22;59091;47.446;19.148;2022-11-15T17:08:45;10.07;80.80
71304;DHT22;59091;47.446;19.148;2022-11-15T17:11:15;10.20;82.74
71304;DHT22;59091;47.446;19.148;2022-11-15T17:13:41;10.20;81.43
71304;DHT22;59091;47.446;19.148;2022-11-15T17:16:08;10.10;80.95
71304;DHT22;59091;47.446;19.148;2022-11-15T17:18:35;10.18;80.59
71304;DHT22;59091;47.446;19.148;2022-11-15T17:21:05;10.17;81.27
71304;DHT22;59091;47.446;19.148;2022-11-15T17:23:32;10.23;81.02
71304;DHT22;59091;47.446;19.148;2022-11-15T17:25:59;10.02;81.29
71304;DHT22;59091;47.446;19.148;2022-11-15T17:28:25;10.10;81.02
71304;DHT22;59091;47.446;19.148;2022-11-15T17:30:50;10.13;80.87
71304;DHT22;59091;47.446;19.148;2022-11-15T17:33:15;10.12;80.98
71304;DHT22;59091;47.446;19.148;2022-11-15T17:35:41;10.09;81.15